sensor_id;sensor_type;location;lat;lon;timestamp;pressure;altitude;pressure_sealevel;temperature;humidity
37856;BME280;23694;43.274;26.924;2023-05-02T00:00:27;99475.31;;;11.58;50.16
37856;BME280;23694;43.274;26.924;2023-05-02T00:02:54;99468.78;;;11.51;50.18
37856;BME280;23694;43.274;26.924;2023-05-02T00:05:20;99471.09;;;11.56;50.20
37856;BME280;23694;43.274;26.924;2023-05-02T00:07:46;99471.84;;;11.58;50.14
37856;BME280;23694;43.274;26.924;2023-05-02T00:10:12;99476.66;;;11.51;50.27
37856;BME280;23694;43.274;26.924;2023-05-02T00:12:38;99475.81;;;11.51;50.37
37856;BME280;23694;43.274;26.924;2023-05-02T00:15:05;99482.47;;;11.42;50.71
37856;BME280;23694;43.274;26.924;2023-05-02T00:17:31;99482.47;;;11.42;50.95
37856;BME280;23694;43.274;26.924;2023-05-02T00:19:58;99475.66;;;11.39;51.07
37856;BME280;23694;43.274;26.924;2023-05-02T00:22:24;99484.84;;;11.32;51.17
37856;BME280;23694;43.274;26.924;2023-05-02T00:24:55;99487.84;;;11.26;51.67
37856;BME280;23694;43.274;26.924;2023-05-02T00:27:21;99490.56;;;11.25;51.96
37856;BME280;23694;43.274;26.924;2023-05-02T00:29:47;99484.78;;;11.20;51.74
37856;BME280;23694;43.274;26.924;2023-05-02T00:32:14;99490.19;;;11.31;51.88
37856;BME280;23694;43.274;26.924;2023-05-02T00:34:40;99485.72;;;11.19;52.08
37856;BME280;23694;43.274;26.924;2023-05-02T00:37:06;99493.31;;;11.09;52.43
37856;BME280;23694;43.274;26.924;2023-05-02T00:39:35;99491.03;;;11.17;52.11
37856;BME280;23694;43.274;26.924;2023-05-02T00:42:01;99490.50;;;11.12;52.56
37856;BME280;23694;43.274;26.924;2023-05-02T00:44:27;99493.00;;;11.14;52.44
37856;BME280;23694;43.274;26.924;2023-05-02T00:46:55;99491.78;;;11.19;52.48
37856;BME280;23694;43.274;26.924;2023-05-02T00:49:21;99485.63;;;11.06;52.80
37856;BME280;23694;43.274;26.924;2023-05-02T00:51:47;99495.06;;;11.08;53.10
37856;BME280;23694;43.274;26.924;2023-05-02T00:54:13;99473.63;;;11.02;52.98
37856;BME280;23694;43.274;26.924;2023-05-02T00:56:39;99489.44;;;11.00;53.38
37856;BME280;23694;43.274;26.924;2023-05-02T00:59:07;99488.50;;;11.01;53.26
37856;BME280;23694;43.274;26.924;2023-05-02T01:04:52;99486.06;;;10.98;54.13
37856;BME280;23694;43.274;26.924;2023-05-02T01:12:58;99484.28;;;10.85;54.20
37856;BME280;23694;43.274;26.924;2023-05-02T01:15:27;99488.31;;;10.76;54.75
37856;BME280;23694;43.274;26.924;2023-05-02T01:17:54;99470.72;;;10.64;55.18
37856;BME280;23694;43.274;26.924;2023-05-02T01:20:25;99471.09;;;10.72;55.02
37856;BME280;23694;43.274;26.924;2023-05-02T01:22:55;99472.69;;;10.60;55.42
37856;BME280;23694;43.274;26.924;2023-05-02T01:30:46;99477.16;;;10.58;55.67
37856;BME280;23694;43.274;26.924;2023-05-02T01:33:16;99464.53;;;10.51;56.54
37856;BME280;23694;43.274;26.924;2023-05-02T01:35:43;99474.16;;;10.50;56.16
37856;BME280;23694;43.274;26.924;2023-05-02T01:38:16;99472.28;;;10.52;56.30
37856;BME280;23694;43.274;26.924;2023-05-02T01:40:44;99469.84;;;10.49;56.48
37856;BME280;23694;43.274;26.924;2023-05-02T01:43:12;99469.19;;;10.45;56.90
37856;BME280;23694;43.274;26.924;2023-05-02T01:45:43;99465.06;;;10.41;56.69
37856;BME280;23694;43.274;26.924;2023-05-02T01:48:11;99470.97;;;10.45;56.83
37856;BME280;23694;43.274;26.924;2023-05-02T01:50:40;99479.75;;;10.44;56.87
37856;BME280;23694;43.274;26.924;2023-05-02T01:53:10;99478.66;;;10.48;56.89
37856;BME280;23694;43.274;26.924;2023-05-02T01:55:43;99471.81;;;10.45;56.71
37856;BME280;23694;43.274;26.924;2023-05-02T01:58:11;99472.75;;;10.44;56.99
37856;BME280;23694;43.274;26.924;2023-05-02T02:00:39;99467.16;;;10.51;56.63
37856;BME280;23694;43.274;26.924;2023-05-02T02:03:08;99465.56;;;10.48;56.91
37856;BME280;23694;43.274;26.924;2023-05-02T02:05:36;99471.31;;;10.39;56.82
37856;BME280;23694;43.274;26.924;2023-05-02T02:08:02;99473.19;;;10.37;57.19
37856;BME280;23694;43.274;26.924;2023-05-02T02:10:31;99471.56;;;10.34;57.52
37856;BME280;23694;43.274;26.924;2023-05-02T02:13:16;99472.16;;;10.39;57.70
37856;BME280;23694;43.274;26.924;2023-05-02T02:15:45;99473.00;;;10.40;57.24
37856;BME280;23694;43.274;26.924;2023-05-02T02:18:18;99475.13;;;10.33;58.04
37856;BME280;23694;43.274;26.924;2023-05-02T02:20:47;99472.13;;;10.25;58.13
37856;BME280;23694;43.274;26.924;2023-05-02T02:23:15;99477.75;;;10.33;57.63
37856;BME280;23694;43.274;26.924;2023-05-02T02:25:42;99481.22;;;10.18;58.39
37856;BME280;23694;43.274;26.924;2023-05-02T02:28:09;99481.09;;;10.21;58.11
37856;BME280;23694;43.274;26.924;2023-05-02T02:30:35;99480.75;;;10.11;58.89
37856;BME280;23694;43.274;26.924;2023-05-02T02:33:01;99482.91;;;10.19;58.52
37856;BME280;23694;43.274;26.924;2023-05-02T02:35:44;99481.00;;;10.23;58.37
37856;BME280;23694;43.274;26.924;2023-05-02T02:38:41;99485.03;;;10.28;58.55
37856;BME280;23694;43.274;26.924;2023-05-02T02:41:15;99478.31;;;10.38;59.91
37856;BME280;23694;43.274;26.924;2023-05-02T02:44:17;99488.56;;;10.43;59.11
37856;BME280;23694;43.274;26.924;2023-05-02T02:47:09;99485.09;;;10.42;58.89
37856;BME280;23694;43.274;26.924;2023-05-02T02:49:59;99485.88;;;10.29;59.56
37856;BME280;23694;43.274;26.924;2023-05-02T02:53:04;99485.50;;;10.35;60.03
37856;BME280;23694;43.274;26.924;2023-05-02T02:55:56;99492.94;;;10.42;59.21
37856;BME280;23694;43.274;26.924;2023-05-02T03:01:02;99489.63;;;10.39;59.79
37856;BME280;23694;43.274;26.924;2023-05-02T03:03:29;99488.78;;;10.38;60.28
37856;BME280;23694;43.274;26.924;2023-05-02T03:05:58;99493.88;;;10.41;60.30
37856;BME280;23694;43.274;26.924;2023-05-02T03:08:24;99500.66;;;10.30;59.68
37856;BME280;23694;43.274;26.924;2023-05-02T03:10:50;99499.81;;;10.29;59.73
37856;BME280;23694;43.274;26.924;2023-05-02T03:13:16;99495.41;;;10.30;59.86
37856;BME280;23694;43.274;26.924;2023-05-02T03:18:23;99502.25;;;10.32;60.24
37856;BME280;23694;43.274;26.924;2023-05-02T03:20:49;99505.03;;;10.45;60.16
37856;BME280;23694;43.274;26.924;2023-05-02T03:23:15;99499.25;;;10.68;60.09
37856;BME280;23694;43.274;26.924;2023-05-02T03:25:41;99505.53;;;10.94;58.62
37856;BME280;23694;43.274;26.924;2023-05-02T03:28:07;99508.56;;;11.17;57.33
37856;BME280;23694;43.274;26.924;2023-05-02T03:30:33;99512.06;;;11.44;55.98
37856;BME280;23694;43.274;26.924;2023-05-02T03:33:00;99509.41;;;11.72;54.96
37856;BME280;23694;43.274;26.924;2023-05-02T03:35:29;99518.91;;;12.02;53.81
37856;BME280;23694;43.274;26.924;2023-05-02T03:37:55;99519.97;;;12.39;52.09
37856;BME280;23694;43.274;26.924;2023-05-02T03:40:21;99519.69;;;12.69;51.11
37856;BME280;23694;43.274;26.924;2023-05-02T03:42:47;99523.06;;;12.96;50.85
37856;BME280;23694;43.274;26.924;2023-05-02T03:45:13;99522.03;;;13.37;49.52
37856;BME280;23694;43.274;26.924;2023-05-02T03:47:39;99532.66;;;13.85;47.80
37856;BME280;23694;43.274;26.924;2023-05-02T03:50:06;99533.09;;;14.26;46.65
37856;BME280;23694;43.274;26.924;2023-05-02T03:52:33;99535.41;;;14.55;46.06
37856;BME280;23694;43.274;26.924;2023-05-02T03:55:00;99540.31;;;15.17;44.25
37856;BME280;23694;43.274;26.924;2023-05-02T03:57:29;99542.84;;;15.74;42.74
37856;BME280;23694;43.274;26.924;2023-05-02T03:59:55;99548.59;;;16.23;41.65
37856;BME280;23694;43.274;26.924;2023-05-02T04:02:21;99550.69;;;16.72;40.34
37856;BME280;23694;43.274;26.924;2023-05-02T04:04:48;99548.78;;;16.95;40.05
37856;BME280;23694;43.274;26.924;2023-05-02T04:07:14;99544.41;;;17.45;39.02
37856;BME280;23694;43.274;26.924;2023-05-02T04:09:44;99549.47;;;17.88;38.07
37856;BME280;23694;43.274;26.924;2023-05-02T04:12:10;99548.69;;;18.17;37.09
37856;BME280;23694;43.274;26.924;2023-05-02T04:14:36;99550.81;;;18.61;36.49
37856;BME280;23694;43.274;26.924;2023-05-02T04:17:02;99551.22;;;19.32;34.96
37856;BME280;23694;43.274;26.924;2023-05-02T04:19:28;99554.28;;;20.02;33.83
37856;BME280;23694;43.274;26.924;2023-05-02T04:21:55;99552.88;;;20.61;32.54
37856;BME280;23694;43.274;26.924;2023-05-02T04:24:21;99550.81;;;21.16;31.63
37856;BME280;23694;43.274;26.924;2023-05-02T04:26:47;99557.41;;;21.64;31.30
37856;BME280;23694;43.274;26.924;2023-05-02T04:29:13;99556.81;;;22.21;30.41
37856;BME280;23694;43.274;26.924;2023-05-02T04:31:40;99557.06;;;22.84;29.19
37856;BME280;23694;43.274;26.924;2023-05-02T04:34:06;99553.59;;;23.47;27.97
37856;BME280;23694;43.274;26.924;2023-05-02T04:36:32;99558.03;;;24.02;27.49
37856;BME280;23694;43.274;26.924;2023-05-02T04:38:59;99555.97;;;24.43;26.17
37856;BME280;23694;43.274;26.924;2023-05-02T04:41:25;99566.97;;;24.94;26.06
37856;BME280;23694;43.274;26.924;2023-05-02T04:43:52;99555.13;;;25.41;24.80
37856;BME280;23694;43.274;26.924;2023-05-02T04:46:18;99560.22;;;25.80;24.04
37856;BME280;23694;43.274;26.924;2023-05-02T04:48:44;99563.19;;;25.70;22.48
37856;BME280;23694;43.274;26.924;2023-05-02T04:51:10;99563.97;;;24.74;23.53
37856;BME280;23694;43.274;26.924;2023-05-02T04:53:38;99560.00;;;25.22;22.81
37856;BME280;23694;43.274;26.924;2023-05-02T04:56:04;99551.34;;;25.50;22.05
37856;BME280;23694;43.274;26.924;2023-05-02T04:58:31;99564.56;;;25.51;21.38
37856;BME280;23694;43.274;26.924;2023-05-02T05:00:57;99556.84;;;25.19;20.80
37856;BME280;23694;43.274;26.924;2023-05-02T05:03:23;99561.66;;;25.23;21.52
37856;BME280;23694;43.274;26.924;2023-05-02T05:05:49;99568.69;;;25.98;21.09
37856;BME280;23694;43.274;26.924;2023-05-02T05:08:15;99567.91;;;26.55;19.97
37856;BME280;23694;43.274;26.924;2023-05-02T05:10:41;99565.56;;;26.67;20.21
37856;BME280;23694;43.274;26.924;2023-05-02T05:13:07;99569.44;;;26.64;19.84
37856;BME280;23694;43.274;26.924;2023-05-02T05:15:33;99567.84;;;27.19;19.94
37856;BME280;23694;43.274;26.924;2023-05-02T05:17:59;99571.50;;;27.74;19.53
37856;BME280;23694;43.274;26.924;2023-05-02T05:20:26;99574.47;;;28.33;19.32
37856;BME280;23694;43.274;26.924;2023-05-02T05:22:52;99582.56;;;27.51;19.86
37856;BME280;23694;43.274;26.924;2023-05-02T05:25:18;99576.59;;;26.57;21.54
37856;BME280;23694;43.274;26.924;2023-05-02T05:27:44;99573.59;;;26.88;21.68
37856;BME280;23694;43.274;26.924;2023-05-02T05:30:11;99583.53;;;26.30;22.42
37856;BME280;23694;43.274;26.924;2023-05-02T05:32:37;99589.19;;;23.39;25.68
37856;BME280;23694;43.274;26.924;2023-05-02T05:35:03;99584.94;;;22.82;26.41
37856;BME280;23694;43.274;26.924;2023-05-02T05:37:29;99582.19;;;22.49;27.66
37856;BME280;23694;43.274;26.924;2023-05-02T05:39:56;99592.06;;;21.12;29.63
37856;BME280;23694;43.274;26.924;2023-05-02T05:42:22;99585.88;;;20.68;31.06
37856;BME280;23694;43.274;26.924;2023-05-02T05:44:48;99582.22;;;19.88;31.95
37856;BME280;23694;43.274;26.924;2023-05-02T05:47:23;99592.81;;;19.14;32.37
37856;BME280;23694;43.274;26.924;2023-05-02T05:49:55;99586.56;;;18.96;33.04
37856;BME280;23694;43.274;26.924;2023-05-02T05:52:21;99586.28;;;18.99;33.14
37856;BME280;23694;43.274;26.924;2023-05-02T05:54:47;99590.34;;;18.74;33.27
37856;BME280;23694;43.274;26.924;2023-05-02T05:57:14;99591.44;;;18.81;33.24
37856;BME280;23694;43.274;26.924;2023-05-02T05:59:40;99588.50;;;18.75;32.59
37856;BME280;23694;43.274;26.924;2023-05-02T06:02:06;99588.38;;;18.66;32.34
37856;BME280;23694;43.274;26.924;2023-05-02T06:04:32;99597.56;;;18.43;32.74
37856;BME280;23694;43.274;26.924;2023-05-02T06:06:58;99589.41;;;18.06;34.83
37856;BME280;23694;43.274;26.924;2023-05-02T06:09:24;99588.78;;;17.22;35.95
37856;BME280;23694;43.274;26.924;2023-05-02T06:11:50;99586.31;;;17.61;35.71
37856;BME280;23694;43.274;26.924;2023-05-02T06:14:16;99577.91;;;17.86;35.07
37856;BME280;23694;43.274;26.924;2023-05-02T06:16:42;99580.72;;;17.85;35.22
37856;BME280;23694;43.274;26.924;2023-05-02T06:19:08;99588.25;;;17.89;35.02
37856;BME280;23694;43.274;26.924;2023-05-02T06:21:36;99590.09;;;17.98;34.86
37856;BME280;23694;43.274;26.924;2023-05-02T06:24:02;99586.06;;;18.04;35.00
37856;BME280;23694;43.274;26.924;2023-05-02T06:26:29;99592.81;;;18.27;33.42
37856;BME280;23694;43.274;26.924;2023-05-02T06:28:55;99596.03;;;18.50;33.64
37856;BME280;23694;43.274;26.924;2023-05-02T06:31:22;99599.66;;;18.49;33.25
37856;BME280;23694;43.274;26.924;2023-05-02T06:33:48;99605.13;;;17.88;33.42
37856;BME280;23694;43.274;26.924;2023-05-02T06:36:14;99591.91;;;17.98;32.39
37856;BME280;23694;43.274;26.924;2023-05-02T06:38:40;99601.47;;;17.80;32.81
37856;BME280;23694;43.274;26.924;2023-05-02T06:41:11;99605.06;;;16.33;34.61
37856;BME280;23694;43.274;26.924;2023-05-02T06:43:38;99602.28;;;16.34;34.24
37856;BME280;23694;43.274;26.924;2023-05-02T06:46:04;99597.75;;;16.14;34.53
37856;BME280;23694;43.274;26.924;2023-05-02T06:48:30;99595.81;;;16.16;35.17
37856;BME280;23694;43.274;26.924;2023-05-02T06:50:56;99600.84;;;16.73;33.45
37856;BME280;23694;43.274;26.924;2023-05-02T06:53:22;99598.69;;;16.35;33.87
37856;BME280;23694;43.274;26.924;2023-05-02T06:55:48;99597.72;;;16.36;32.54
37856;BME280;23694;43.274;26.924;2023-05-02T06:58:15;99585.19;;;17.02;32.54
37856;BME280;23694;43.274;26.924;2023-05-02T07:00:41;99604.16;;;17.07;32.15
37856;BME280;23694;43.274;26.924;2023-05-02T07:03:07;99591.50;;;17.41;29.89
37856;BME280;23694;43.274;26.924;2023-05-02T07:05:33;99604.59;;;16.92;29.02
37856;BME280;23694;43.274;26.924;2023-05-02T07:07:59;99607.75;;;17.27;28.68
37856;BME280;23694;43.274;26.924;2023-05-02T07:10:25;99600.97;;;17.95;29.31
37856;BME280;23694;43.274;26.924;2023-05-02T07:12:51;99602.63;;;17.96;27.04
37856;BME280;23694;43.274;26.924;2023-05-02T07:15:17;99605.00;;;17.99;27.72
37856;BME280;23694;43.274;26.924;2023-05-02T07:17:43;99603.75;;;17.63;27.99
37856;BME280;23694;43.274;26.924;2023-05-02T07:20:12;99607.13;;;17.44;28.30
37856;BME280;23694;43.274;26.924;2023-05-02T07:22:38;99602.44;;;17.79;27.62
37856;BME280;23694;43.274;26.924;2023-05-02T07:25:04;99601.97;;;18.14;27.17
37856;BME280;23694;43.274;26.924;2023-05-02T07:27:30;99609.16;;;18.42;27.40
37856;BME280;23694;43.274;26.924;2023-05-02T07:29:56;99605.66;;;18.42;27.45
37856;BME280;23694;43.274;26.924;2023-05-02T07:32:22;99611.28;;;18.67;26.24
37856;BME280;23694;43.274;26.924;2023-05-02T07:34:50;99613.22;;;18.85;25.75
37856;BME280;23694;43.274;26.924;2023-05-02T07:37:19;99618.38;;;18.38;25.91
37856;BME280;23694;43.274;26.924;2023-05-02T07:39:45;99616.13;;;18.43;25.63
37856;BME280;23694;43.274;26.924;2023-05-02T07:42:11;99617.34;;;17.70;26.79
37856;BME280;23694;43.274;26.924;2023-05-02T07:44:37;99612.75;;;18.22;26.14
37856;BME280;23694;43.274;26.924;2023-05-02T07:47:04;99613.00;;;18.19;25.55
37856;BME280;23694;43.274;26.924;2023-05-02T07:49:30;99618.03;;;17.72;27.09
37856;BME280;23694;43.274;26.924;2023-05-02T07:51:56;99624.47;;;17.28;27.29
37856;BME280;23694;43.274;26.924;2023-05-02T07:54:22;99605.84;;;18.00;27.20
37856;BME280;23694;43.274;26.924;2023-05-02T07:56:51;99610.31;;;18.68;25.83
37856;BME280;23694;43.274;26.924;2023-05-02T07:59:17;99621.63;;;18.80;25.70
37856;BME280;23694;43.274;26.924;2023-05-02T08:01:43;99631.53;;;18.97;26.35
37856;BME280;23694;43.274;26.924;2023-05-02T08:04:09;99613.22;;;18.46;27.51
37856;BME280;23694;43.274;26.924;2023-05-02T08:06:36;99607.34;;;18.52;26.10
37856;BME280;23694;43.274;26.924;2023-05-02T08:09:02;99612.75;;;18.22;27.51
37856;BME280;23694;43.274;26.924;2023-05-02T08:11:28;99607.25;;;18.63;26.84
37856;BME280;23694;43.274;26.924;2023-05-02T08:13:54;99608.34;;;18.99;26.50
37856;BME280;23694;43.274;26.924;2023-05-02T08:16:21;99622.19;;;18.64;26.50
37856;BME280;23694;43.274;26.924;2023-05-02T08:18:47;99611.97;;;18.69;26.37
37856;BME280;23694;43.274;26.924;2023-05-02T08:21:13;99616.72;;;18.76;25.59
37856;BME280;23694;43.274;26.924;2023-05-02T08:23:40;99615.63;;;18.88;25.38
37856;BME280;23694;43.274;26.924;2023-05-02T08:26:07;99612.22;;;18.57;26.72
37856;BME280;23694;43.274;26.924;2023-05-02T08:28:33;99617.53;;;18.37;25.95
37856;BME280;23694;43.274;26.924;2023-05-02T08:30:59;99613.69;;;18.11;26.14
37856;BME280;23694;43.274;26.924;2023-05-02T08:33:25;99609.06;;;18.63;26.59
37856;BME280;23694;43.274;26.924;2023-05-02T08:35:51;99605.56;;;18.62;25.97
37856;BME280;23694;43.274;26.924;2023-05-02T08:38:18;99602.75;;;18.45;26.07
37856;BME280;23694;43.274;26.924;2023-05-02T08:40:44;99605.25;;;18.46;26.90
37856;BME280;23694;43.274;26.924;2023-05-02T08:43:11;99611.25;;;18.58;26.35
37856;BME280;23694;43.274;26.924;2023-05-02T08:45:42;99596.03;;;18.50;26.74
37856;BME280;23694;43.274;26.924;2023-05-02T08:48:10;99591.56;;;18.60;27.44
37856;BME280;23694;43.274;26.924;2023-05-02T08:50:41;99596.22;;;18.87;27.99
37856;BME280;23694;43.274;26.924;2023-05-02T08:53:10;99595.63;;;18.84;27.68
37856;BME280;23694;43.274;26.924;2023-05-02T08:55:38;99588.22;;;19.63;27.70
37856;BME280;23694;43.274;26.924;2023-05-02T08:58:08;99600.53;;;19.64;27.61
37856;BME280;23694;43.274;26.924;2023-05-02T09:00:40;99596.94;;;19.55;28.00
37856;BME280;23694;43.274;26.924;2023-05-02T09:05:52;99597.91;;;19.54;27.51
37856;BME280;23694;43.274;26.924;2023-05-02T09:08:22;99593.28;;;19.84;26.77
37856;BME280;23694;43.274;26.924;2023-05-02T09:10:49;99578.75;;;19.41;27.51
37856;BME280;23694;43.274;26.924;2023-05-02T09:13:40;99589.16;;;19.25;27.70
37856;BME280;23694;43.274;26.924;2023-05-02T09:16:18;99568.91;;;19.88;25.83
37856;BME280;23694;43.274;26.924;2023-05-02T09:18:49;99581.63;;;19.94;26.49
37856;BME280;23694;43.274;26.924;2023-05-02T09:21:23;99578.19;;;19.84;26.75
37856;BME280;23694;43.274;26.924;2023-05-02T09:23:56;99580.50;;;20.15;26.39
37856;BME280;23694;43.274;26.924;2023-05-02T09:26:28;99575.06;;;20.16;26.82
37856;BME280;23694;43.274;26.924;2023-05-02T09:28:58;99576.38;;;20.83;25.81
37856;BME280;23694;43.274;26.924;2023-05-02T09:31:27;99564.44;;;20.70;25.63
37856;BME280;23694;43.274;26.924;2023-05-02T09:33:55;99561.88;;;20.42;25.42
37856;BME280;23694;43.274;26.924;2023-05-02T09:36:23;99573.72;;;20.48;25.62
37856;BME280;23694;43.274;26.924;2023-05-02T09:38:49;99558.72;;;19.47;26.10
37856;BME280;23694;43.274;26.924;2023-05-02T09:41:16;99578.88;;;18.83;26.85
37856;BME280;23694;43.274;26.924;2023-05-02T09:43:55;99570.91;;;19.59;26.32
37856;BME280;23694;43.274;26.924;2023-05-02T09:46:22;99567.69;;;20.28;25.37
37856;BME280;23694;43.274;26.924;2023-05-02T09:48:52;99557.25;;;20.44;25.74
37856;BME280;23694;43.274;26.924;2023-05-02T09:51:19;99562.31;;;20.38;25.77
37856;BME280;23694;43.274;26.924;2023-05-02T09:53:46;99554.94;;;19.49;25.92
37856;BME280;23694;43.274;26.924;2023-05-02T09:56:12;99553.69;;;19.44;26.23
37856;BME280;23694;43.274;26.924;2023-05-02T09:58:38;99554.84;;;19.78;26.06
37856;BME280;23694;43.274;26.924;2023-05-02T10:01:05;99553.25;;;19.85;25.82
37856;BME280;23694;43.274;26.924;2023-05-02T10:03:36;99556.94;;;20.02;25.68
37856;BME280;23694;43.274;26.924;2023-05-02T10:06:03;99553.41;;;20.65;25.42
37856;BME280;23694;43.274;26.924;2023-05-02T10:08:33;99542.41;;;20.60;26.05
37856;BME280;23694;43.274;26.924;2023-05-02T10:11:04;99552.34;;;20.75;25.38
37856;BME280;23694;43.274;26.924;2023-05-02T10:13:32;99543.19;;;20.07;26.34
37856;BME280;23694;43.274;26.924;2023-05-02T10:16:01;99548.56;;;19.97;26.10
37856;BME280;23694;43.274;26.924;2023-05-02T10:18:37;99546.13;;;19.49;26.45
37856;BME280;23694;43.274;26.924;2023-05-02T10:21:09;99547.06;;;20.12;26.15
37856;BME280;23694;43.274;26.924;2023-05-02T10:23:40;99542.59;;;20.13;25.70
37856;BME280;23694;43.274;26.924;2023-05-02T10:26:08;99545.06;;;19.97;25.49
37856;BME280;23694;43.274;26.924;2023-05-02T10:28:35;99540.88;;;20.57;25.00
37856;BME280;23694;43.274;26.924;2023-05-02T10:31:04;99548.84;;;20.75;25.14
37856;BME280;23694;43.274;26.924;2023-05-02T10:33:33;99536.84;;;20.53;25.58
37856;BME280;23694;43.274;26.924;2023-05-02T10:36:00;99529.41;;;20.56;24.89
37856;BME280;23694;43.274;26.924;2023-05-02T10:38:26;99540.41;;;20.62;25.59
37856;BME280;23694;43.274;26.924;2023-05-02T10:41:16;99540.66;;;19.50;26.39
37856;BME280;23694;43.274;26.924;2023-05-02T10:43:45;99536.88;;;20.08;26.23
37856;BME280;23694;43.274;26.924;2023-05-02T10:46:31;99531.84;;;20.50;25.83
37856;BME280;23694;43.274;26.924;2023-05-02T10:49:09;99541.41;;;20.25;25.55
37856;BME280;23694;43.274;26.924;2023-05-02T10:51:38;99528.25;;;20.59;24.87
37856;BME280;23694;43.274;26.924;2023-05-02T10:54:37;99532.72;;;20.05;25.96
37856;BME280;23694;43.274;26.924;2023-05-02T10:57:07;99526.31;;;20.43;25.50
37856;BME280;23694;43.274;26.924;2023-05-02T10:59:39;99534.47;;;21.11;24.91
37856;BME280;23694;43.274;26.924;2023-05-02T11:05:02;99538.13;;;21.10;25.15
37856;BME280;23694;43.274;26.924;2023-05-02T11:07:33;99544.69;;;19.91;26.08
37856;BME280;23694;43.274;26.924;2023-05-02T11:18:11;99533.28;;;20.62;25.70
37856;BME280;23694;43.274;26.924;2023-05-02T11:20:42;99532.81;;;20.31;25.83
37856;BME280;23694;43.274;26.924;2023-05-02T11:25:45;99520.31;;;21.11;25.45
37856;BME280;23694;43.274;26.924;2023-05-02T11:31:03;99511.00;;;21.15;25.49
37856;BME280;23694;43.274;26.924;2023-05-02T11:33:30;99519.72;;;20.38;26.71
37856;BME280;23694;43.274;26.924;2023-05-02T11:35:56;99515.63;;;20.61;26.52
37856;BME280;23694;43.274;26.924;2023-05-02T11:38:24;99511.81;;;20.81;25.80
37856;BME280;23694;43.274;26.924;2023-05-02T11:40:55;99507.09;;;21.27;26.21
37856;BME280;23694;43.274;26.924;2023-05-02T11:43:23;99508.78;;;21.70;25.43
37856;BME280;23694;43.274;26.924;2023-05-02T11:45:51;99510.00;;;20.64;25.55
37856;BME280;23694;43.274;26.924;2023-05-02T11:48:19;99492.59;;;20.96;25.82
37856;BME280;23694;43.274;26.924;2023-05-02T11:50:50;99512.47;;;21.35;25.96
37856;BME280;23694;43.274;26.924;2023-05-02T11:53:18;99501.66;;;21.37;25.77
37856;BME280;23694;43.274;26.924;2023-05-02T11:55:58;99503.31;;;21.38;26.09
37856;BME280;23694;43.274;26.924;2023-05-02T11:58:26;99505.53;;;21.16;26.07
37856;BME280;23694;43.274;26.924;2023-05-02T12:00:58;99491.78;;;21.29;26.45
37856;BME280;23694;43.274;26.924;2023-05-02T12:03:32;99510.59;;;21.28;26.68
37856;BME280;23694;43.274;26.924;2023-05-02T12:06:10;99497.16;;;21.11;27.00
37856;BME280;23694;43.274;26.924;2023-05-02T12:08:37;99495.47;;;21.36;26.31
37856;BME280;23694;43.274;26.924;2023-05-02T12:11:03;99494.75;;;21.60;26.16
37856;BME280;23694;43.274;26.924;2023-05-02T12:13:30;99485.63;;;20.77;27.58
37856;BME280;23694;43.274;26.924;2023-05-02T12:15:56;99485.47;;;20.17;27.96
37856;BME280;23694;43.274;26.924;2023-05-02T12:18:23;99488.28;;;20.77;27.36
37856;BME280;23694;43.274;26.924;2023-05-02T12:20:51;99487.78;;;21.25;26.43
37856;BME280;23694;43.274;26.924;2023-05-02T12:23:22;99492.34;;;21.41;25.99
37856;BME280;23694;43.274;26.924;2023-05-02T12:25:49;99511.38;;;21.20;26.19
37856;BME280;23694;43.274;26.924;2023-05-02T12:28:18;99493.91;;;20.74;27.11
37856;BME280;23694;43.274;26.924;2023-05-02T12:30:48;99488.66;;;20.56;27.19
37856;BME280;23694;43.274;26.924;2023-05-02T12:33:15;99485.78;;;21.01;26.59
37856;BME280;23694;43.274;26.924;2023-05-02T12:35:42;99493.56;;;21.20;26.82
37856;BME280;23694;43.274;26.924;2023-05-02T12:38:15;99465.53;;;21.42;26.95
37856;BME280;23694;43.274;26.924;2023-05-02T12:40:52;99484.09;;;21.60;26.53
37856;BME280;23694;43.274;26.924;2023-05-02T12:43:19;99479.22;;;21.21;26.66
37856;BME280;23694;43.274;26.924;2023-05-02T12:45:47;99457.47;;;21.26;26.72
37856;BME280;23694;43.274;26.924;2023-05-02T12:48:26;99456.72;;;20.82;26.64
37856;BME280;23694;43.274;26.924;2023-05-02T12:50:53;99463.53;;;20.58;26.91
37856;BME280;23694;43.274;26.924;2023-05-02T12:53:42;99455.94;;;20.89;26.37
37856;BME280;23694;43.274;26.924;2023-05-02T12:56:09;99468.44;;;20.71;27.32
37856;BME280;23694;43.274;26.924;2023-05-02T12:58:47;99460.47;;;20.71;27.62
37856;BME280;23694;43.274;26.924;2023-05-02T13:01:14;99466.84;;;21.04;26.65
37856;BME280;23694;43.274;26.924;2023-05-02T13:03:42;99458.81;;;20.96;26.93
37856;BME280;23694;43.274;26.924;2023-05-02T13:06:08;99487.75;;;20.73;27.15
37856;BME280;23694;43.274;26.924;2023-05-02T13:08:35;99464.34;;;21.03;27.08
37856;BME280;23694;43.274;26.924;2023-05-02T13:11:02;99452.25;;;21.16;26.52
37856;BME280;23694;43.274;26.924;2023-05-02T13:13:29;99471.53;;;21.10;26.02
37856;BME280;23694;43.274;26.924;2023-05-02T13:15:55;99471.53;;;21.10;26.23
37856;BME280;23694;43.274;26.924;2023-05-02T13:18:21;99443.19;;;21.01;26.92
37856;BME280;23694;43.274;26.924;2023-05-02T13:20:47;99449.19;;;21.03;26.36
37856;BME280;23694;43.274;26.924;2023-05-02T13:23:13;99472.06;;;20.88;26.30
37856;BME280;23694;43.274;26.924;2023-05-02T13:25:41;99453.38;;;20.80;26.39
37856;BME280;23694;43.274;26.924;2023-05-02T13:28:07;99450.81;;;20.70;27.01
37856;BME280;23694;43.274;26.924;2023-05-02T13:30:33;99452.38;;;20.55;26.64
37856;BME280;23694;43.274;26.924;2023-05-02T13:32:59;99460.63;;;20.70;27.15
37856;BME280;23694;43.274;26.924;2023-05-02T13:35:26;99452.00;;;20.76;27.27